sensor_id;sensor_type;location;lat;lon;timestamp;P1;durP1;ratioP1;P2;durP2;ratioP2
35681;SDS011;21805;51.022;4.782;2023-09-12T06:40:30;37.42;;;20.10;;
35681;SDS011;21805;51.022;4.782;2023-09-12T06:42:56;34.85;;;18.02;;
35681;SDS011;21805;51.022;4.782;2023-09-12T06:45:22;28.35;;;18.05;;
35681;SDS011;21805;51.022;4.782;2023-09-12T06:47:48;29.33;;;17.60;;
35681;SDS011;21805;51.022;4.782;2023-09-12T06:50:14;31.15;;;16.98;;
35681;SDS011;21805;51.022;4.782;2023-09-12T06:52:41;32.20;;;18.92;;
35681;SDS011;21805;51.022;4.782;2023-09-12T06:55:07;31.60;;;19.05;;
35681;SDS011;21805;51.022;4.782;2023-09-12T06:57:33;32.80;;;19.33;;
35681;SDS011;21805;51.022;4.782;2023-09-12T06:59:59;34.65;;;20.27;;
35681;SDS011;21805;51.022;4.782;2023-09-12T07:02:33;34.53;;;21.05;;
35681;SDS011;21805;51.022;4.782;2023-09-12T07:05:00;32.60;;;19.27;;
35681;SDS011;21805;51.022;4.782;2023-09-12T07:07:29;41.63;;;21.83;;
35681;SDS011;21805;51.022;4.782;2023-09-12T07:09:55;44.55;;;21.00;;
35681;SDS011;21805;51.022;4.782;2023-09-12T07:12:24;34.97;;;22.25;;
35681;SDS011;21805;51.022;4.782;2023-09-12T07:14:55;51.33;;;29.17;;
35681;SDS011;21805;51.022;4.782;2023-09-12T07:17:27;39.25;;;21.65;;
35681;SDS011;21805;51.022;4.782;2023-09-12T07:19:55;43.83;;;28.30;;
35681;SDS011;21805;51.022;4.782;2023-09-12T07:22:23;51.75;;;28.83;;
35681;SDS011;21805;51.022;4.782;2023-09-12T07:31:03;55.85;;;29.20;;
35681;SDS011;21805;51.022;4.782;2023-09-12T07:33:32;55.67;;;30.00;;
35681;SDS011;21805;51.022;4.782;2023-09-12T07:36:06;44.03;;;26.77;;
35681;SDS011;21805;51.022;4.782;2023-09-12T07:38:32;42.83;;;26.85;;
35681;SDS011;21805;51.022;4.782;2023-09-12T07:41:02;37.05;;;22.75;;
35681;SDS011;21805;51.022;4.782;2023-09-12T07:43:29;44.83;;;26.38;;
35681;SDS011;21805;51.022;4.782;2023-09-12T07:46:01;56.35;;;29.58;;
35681;SDS011;21805;51.022;4.782;2023-09-12T07:48:30;51.72;;;29.40;;
35681;SDS011;21805;51.022;4.782;2023-09-12T07:51:00;47.25;;;26.83;;
35681;SDS011;21805;51.022;4.782;2023-09-12T07:53:28;56.92;;;30.92;;
35681;SDS011;21805;51.022;4.782;2023-09-12T07:55:58;53.38;;;29.40;;
35681;SDS011;21805;51.022;4.782;2023-09-12T07:58:44;57.08;;;31.77;;
35681;SDS011;21805;51.022;4.782;2023-09-12T08:01:11;52.15;;;30.23;;
35681;SDS011;21805;51.022;4.782;2023-09-12T08:03:41;48.83;;;26.42;;
35681;SDS011;21805;51.022;4.782;2023-09-12T08:06:12;46.35;;;26.42;;
35681;SDS011;21805;51.022;4.782;2023-09-12T08:08:40;41.20;;;25.73;;
35681;SDS011;21805;51.022;4.782;2023-09-12T08:11:06;47.53;;;26.88;;
35681;SDS011;21805;51.022;4.782;2023-09-12T08:13:39;44.75;;;25.80;;
35681;SDS011;21805;51.022;4.782;2023-09-12T08:16:07;46.95;;;26.05;;
35681;SDS011;21805;51.022;4.782;2023-09-12T08:18:44;44.25;;;26.27;;
35681;SDS011;21805;51.022;4.782;2023-09-12T08:21:17;52.90;;;26.90;;
35681;SDS011;21805;51.022;4.782;2023-09-12T08:23:54;39.60;;;24.05;;
35681;SDS011;21805;51.022;4.782;2023-09-12T08:26:47;44.28;;;25.70;;
35681;SDS011;21805;51.022;4.782;2023-09-12T08:29:51;45.58;;;26.67;;
35681;SDS011;21805;51.022;4.782;2023-09-12T16:53:49;9.32;;;5.88;;
35681;SDS011;21805;51.022;4.782;2023-09-12T16:56:25;9.15;;;5.30;;
35681;SDS011;21805;51.022;4.782;2023-09-12T16:58:54;9.23;;;5.55;;
35681;SDS011;21805;51.022;4.782;2023-09-12T17:01:23;9.15;;;5.97;;
35681;SDS011;21805;51.022;4.782;2023-09-12T17:03:56;10.10;;;6.55;;
35681;SDS011;21805;51.022;4.782;2023-09-12T17:06:24;10.93;;;6.13;;
35681;SDS011;21805;51.022;4.782;2023-09-12T17:08:49;13.10;;;7.10;;
35681;SDS011;21805;51.022;4.782;2023-09-12T17:11:15;9.45;;;6.43;;
35681;SDS011;21805;51.022;4.782;2023-09-12T17:13:43;12.05;;;6.40;;
35681;SDS011;21805;51.022;4.782;2023-09-12T17:16:09;14.88;;;7.30;;
35681;SDS011;21805;51.022;4.782;2023-09-12T17:18:35;11.13;;;7.20;;
35681;SDS011;21805;51.022;4.782;2023-09-12T17:29:50;12.85;;;8.15;;
35681;SDS011;21805;51.022;4.782;2023-09-12T17:57:57;14.93;;;9.95;;
35681;SDS011;21805;51.022;4.782;2023-09-12T18:32:58;16.80;;;10.25;;
35681;SDS011;21805;51.022;4.782;2023-09-12T19:16:00;20.10;;;12.68;;
35681;SDS011;21805;51.022;4.782;2023-09-12T20:23:28;26.13;;;15.05;;
35681;SDS011;21805;51.022;4.782;2023-09-12T21:04:02;33.38;;;21.48;;
35681;SDS011;21805;51.022;4.782;2023-09-12T21:13:39;29.90;;;20.02;;
35681;SDS011;21805;51.022;4.782;2023-09-12T21:24:53;45.92;;;26.55;;
35681;SDS011;21805;51.022;4.782;2023-09-12T21:27:30;46.40;;;31.75;;
35681;SDS011;21805;51.022;4.782;2023-09-12T21:30:34;49.75;;;31.83;;
35681;SDS011;21805;51.022;4.782;2023-09-12T21:33:31;48.83;;;30.02;;
35681;SDS011;21805;51.022;4.782;2023-09-12T21:36:11;37.15;;;25.33;;
35681;SDS011;21805;51.022;4.782;2023-09-12T21:38:56;49.72;;;33.05;;
35681;SDS011;21805;51.022;4.782;2023-09-12T21:44:26;50.53;;;31.45;;
